sensor_id;sensor_type;location;lat;lon;timestamp;P1;durP1;ratioP1;P2;durP2;ratioP2
34767;SDS011;21755;43.608;1.236;2024-02-21T00:00:56;23.70;;;10.13;;
34767;SDS011;21755;43.608;1.236;2024-02-21T00:03:22;21.05;;;10.00;;
34767;SDS011;21755;43.608;1.236;2024-02-21T00:05:48;19.00;;;9.10;;
34767;SDS011;21755;43.608;1.236;2024-02-21T00:08:13;19.92;;;8.50;;
34767;SDS011;21755;43.608;1.236;2024-02-21T00:10:39;15.10;;;8.25;;
34767;SDS011;21755;43.608;1.236;2024-02-21T00:13:05;16.05;;;8.43;;
34767;SDS011;21755;43.608;1.236;2024-02-21T00:15:31;16.95;;;7.85;;
34767;SDS011;21755;43.608;1.236;2024-02-21T00:17:57;14.32;;;7.13;;
34767;SDS011;21755;43.608;1.236;2024-02-21T00:20:23;11.95;;;6.00;;
34767;SDS011;21755;43.608;1.236;2024-02-21T00:22:50;11.30;;;5.60;;
34767;SDS011;21755;43.608;1.236;2024-02-21T00:25:16;11.50;;;4.53;;
34767;SDS011;21755;43.608;1.236;2024-02-21T00:27:42;8.95;;;4.53;;
34767;SDS011;21755;43.608;1.236;2024-02-21T00:30:08;11.75;;;5.18;;
34767;SDS011;21755;43.608;1.236;2024-02-21T00:32:35;7.80;;;3.97;;
34767;SDS011;21755;43.608;1.236;2024-02-21T00:35:01;12.15;;;3.42;;
34767;SDS011;21755;43.608;1.236;2024-02-21T00:37:27;10.07;;;3.25;;
34767;SDS011;21755;43.608;1.236;2024-02-21T00:39:53;9.57;;;3.50;;
34767;SDS011;21755;43.608;1.236;2024-02-21T00:42:19;7.53;;;3.08;;
34767;SDS011;21755;43.608;1.236;2024-02-21T00:44:46;13.35;;;3.35;;
34767;SDS011;21755;43.608;1.236;2024-02-21T00:47:12;4.18;;;2.67;;
34767;SDS011;21755;43.608;1.236;2024-02-21T00:49:38;7.72;;;2.85;;
34767;SDS011;21755;43.608;1.236;2024-02-21T00:52:04;9.18;;;2.85;;
34767;SDS011;21755;43.608;1.236;2024-02-21T00:54:30;7.38;;;3.13;;
34767;SDS011;21755;43.608;1.236;2024-02-21T00:56:55;6.90;;;2.75;;
34767;SDS011;21755;43.608;1.236;2024-02-21T00:59:21;7.50;;;3.17;;
34767;SDS011;21755;43.608;1.236;2024-02-21T01:01:47;6.57;;;2.80;;
34767;SDS011;21755;43.608;1.236;2024-02-21T01:04:13;8.73;;;2.95;;
34767;SDS011;21755;43.608;1.236;2024-02-21T01:06:39;9.73;;;2.97;;
34767;SDS011;21755;43.608;1.236;2024-02-21T01:09:08;6.18;;;3.30;;
34767;SDS011;21755;43.608;1.236;2024-02-21T01:11:33;7.35;;;3.28;;
34767;SDS011;21755;43.608;1.236;2024-02-21T01:13:59;7.70;;;3.42;;
34767;SDS011;21755;43.608;1.236;2024-02-21T01:16:25;7.97;;;3.22;;
34767;SDS011;21755;43.608;1.236;2024-02-21T01:18:51;8.57;;;3.35;;
34767;SDS011;21755;43.608;1.236;2024-02-21T01:21:17;6.55;;;3.45;;
34767;SDS011;21755;43.608;1.236;2024-02-21T01:23:43;6.68;;;3.30;;
34767;SDS011;21755;43.608;1.236;2024-02-21T01:26:09;11.43;;;4.18;;
34767;SDS011;21755;43.608;1.236;2024-02-21T01:28:38;9.05;;;3.60;;
34767;SDS011;21755;43.608;1.236;2024-02-21T01:31:04;10.57;;;4.07;;
34767;SDS011;21755;43.608;1.236;2024-02-21T01:33:30;8.13;;;4.18;;
34767;SDS011;21755;43.608;1.236;2024-02-21T01:36:02;10.93;;;3.78;;
34767;SDS011;21755;43.608;1.236;2024-02-21T01:38:28;9.60;;;3.50;;
34767;SDS011;21755;43.608;1.236;2024-02-21T01:40:54;11.30;;;3.83;;
34767;SDS011;21755;43.608;1.236;2024-02-21T01:43:21;11.07;;;3.92;;
34767;SDS011;21755;43.608;1.236;2024-02-21T01:45:51;10.20;;;4.40;;
34767;SDS011;21755;43.608;1.236;2024-02-21T01:48:19;8.55;;;4.22;;
34767;SDS011;21755;43.608;1.236;2024-02-21T01:50:47;12.90;;;4.15;;
34767;SDS011;21755;43.608;1.236;2024-02-21T01:53:15;10.32;;;3.90;;
34767;SDS011;21755;43.608;1.236;2024-02-21T01:55:48;13.10;;;5.20;;
34767;SDS011;21755;43.608;1.236;2024-02-21T01:58:14;11.52;;;4.43;;
34767;SDS011;21755;43.608;1.236;2024-02-21T02:00:44;15.18;;;4.93;;
34767;SDS011;21755;43.608;1.236;2024-02-21T02:03:12;11.75;;;4.07;;
34767;SDS011;21755;43.608;1.236;2024-02-21T02:05:48;11.55;;;3.40;;
34767;SDS011;21755;43.608;1.236;2024-02-21T02:08:15;9.38;;;3.88;;
34767;SDS011;21755;43.608;1.236;2024-02-21T02:10:42;10.40;;;4.65;;
34767;SDS011;21755;43.608;1.236;2024-02-21T02:13:08;9.02;;;4.10;;
34767;SDS011;21755;43.608;1.236;2024-02-21T02:15:41;8.85;;;4.03;;
34767;SDS011;21755;43.608;1.236;2024-02-21T02:20:35;12.82;;;5.55;;
34767;SDS011;21755;43.608;1.236;2024-02-21T02:23:11;8.88;;;5.35;;
34767;SDS011;21755;43.608;1.236;2024-02-21T02:25:56;11.55;;;5.25;;
34767;SDS011;21755;43.608;1.236;2024-02-21T02:28:23;11.10;;;4.93;;
34767;SDS011;21755;43.608;1.236;2024-02-21T02:30:49;15.02;;;5.18;;
34767;SDS011;21755;43.608;1.236;2024-02-21T02:33:15;11.45;;;5.00;;
34767;SDS011;21755;43.608;1.236;2024-02-21T02:35:44;10.43;;;5.32;;
34767;SDS011;21755;43.608;1.236;2024-02-21T02:38:10;10.98;;;4.88;;
34767;SDS011;21755;43.608;1.236;2024-02-21T02:40:38;10.75;;;4.82;;
34767;SDS011;21755;43.608;1.236;2024-02-21T02:43:05;7.95;;;4.70;;
34767;SDS011;21755;43.608;1.236;2024-02-21T02:45:31;9.85;;;4.57;;
34767;SDS011;21755;43.608;1.236;2024-02-21T02:47:58;10.93;;;5.18;;
34767;SDS011;21755;43.608;1.236;2024-02-21T02:50:25;12.57;;;5.75;;
34767;SDS011;21755;43.608;1.236;2024-02-21T02:52:55;10.38;;;5.55;;
34767;SDS011;21755;43.608;1.236;2024-02-21T02:55:21;15.95;;;5.25;;
34767;SDS011;21755;43.608;1.236;2024-02-21T02:57:47;9.98;;;5.15;;
34767;SDS011;21755;43.608;1.236;2024-02-21T03:00:13;10.77;;;5.25;;
34767;SDS011;21755;43.608;1.236;2024-02-21T03:02:41;9.63;;;4.55;;
34767;SDS011;21755;43.608;1.236;2024-02-21T03:05:12;13.93;;;5.13;;
34767;SDS011;21755;43.608;1.236;2024-02-21T03:07:39;13.88;;;5.25;;
34767;SDS011;21755;43.608;1.236;2024-02-21T03:10:06;7.93;;;4.30;;
34767;SDS011;21755;43.608;1.236;2024-02-21T03:12:32;8.57;;;4.70;;
34767;SDS011;21755;43.608;1.236;2024-02-21T03:14:58;9.05;;;4.32;;
34767;SDS011;21755;43.608;1.236;2024-02-21T03:17:24;11.77;;;5.28;;
34767;SDS011;21755;43.608;1.236;2024-02-21T03:19:52;7.20;;;3.80;;
34767;SDS011;21755;43.608;1.236;2024-02-21T03:22:18;7.03;;;4.18;;
34767;SDS011;21755;43.608;1.236;2024-02-21T03:24:44;11.40;;;4.63;;
34767;SDS011;21755;43.608;1.236;2024-02-21T03:27:10;7.95;;;4.30;;
34767;SDS011;21755;43.608;1.236;2024-02-21T03:29:36;8.63;;;4.97;;
34767;SDS011;21755;43.608;1.236;2024-02-21T03:32:02;12.63;;;5.22;;
34767;SDS011;21755;43.608;1.236;2024-02-21T03:34:28;8.73;;;4.85;;
34767;SDS011;21755;43.608;1.236;2024-02-21T03:36:54;8.02;;;4.25;;
34767;SDS011;21755;43.608;1.236;2024-02-21T03:39:19;8.40;;;4.45;;
34767;SDS011;21755;43.608;1.236;2024-02-21T03:41:46;10.88;;;5.10;;
34767;SDS011;21755;43.608;1.236;2024-02-21T03:44:12;7.60;;;4.22;;
34767;SDS011;21755;43.608;1.236;2024-02-21T03:46:38;13.40;;;4.53;;
34767;SDS011;21755;43.608;1.236;2024-02-21T03:49:04;13.02;;;4.65;;
34767;SDS011;21755;43.608;1.236;2024-02-21T03:51:30;7.80;;;4.28;;
34767;SDS011;21755;43.608;1.236;2024-02-21T03:53:56;8.85;;;3.88;;
34767;SDS011;21755;43.608;1.236;2024-02-21T03:56:22;9.57;;;3.80;;
34767;SDS011;21755;43.608;1.236;2024-02-21T03:58:48;10.07;;;4.82;;
34767;SDS011;21755;43.608;1.236;2024-02-21T04:01:15;12.88;;;4.45;;
34767;SDS011;21755;43.608;1.236;2024-02-21T04:03:41;7.85;;;3.88;;
34767;SDS011;21755;43.608;1.236;2024-02-21T04:06:08;17.30;;;4.38;;
34767;SDS011;21755;43.608;1.236;2024-02-21T04:08:35;7.20;;;3.65;;
34767;SDS011;21755;43.608;1.236;2024-02-21T04:11:00;8.95;;;3.45;;
34767;SDS011;21755;43.608;1.236;2024-02-21T04:13:26;9.65;;;3.97;;
34767;SDS011;21755;43.608;1.236;2024-02-21T04:15:52;8.85;;;3.83;;
34767;SDS011;21755;43.608;1.236;2024-02-21T04:18:18;5.47;;;3.67;;
34767;SDS011;21755;43.608;1.236;2024-02-21T04:20:44;11.07;;;3.72;;
34767;SDS011;21755;43.608;1.236;2024-02-21T04:23:10;9.38;;;3.50;;
34767;SDS011;21755;43.608;1.236;2024-02-21T04:25:36;7.05;;;3.42;;
34767;SDS011;21755;43.608;1.236;2024-02-21T04:28:02;5.63;;;3.25;;
34767;SDS011;21755;43.608;1.236;2024-02-21T04:30:28;12.25;;;3.97;;
34767;SDS011;21755;43.608;1.236;2024-02-21T04:32:54;5.78;;;3.25;;
34767;SDS011;21755;43.608;1.236;2024-02-21T04:35:20;8.85;;;4.57;;
34767;SDS011;21755;43.608;1.236;2024-02-21T04:37:46;9.27;;;3.90;;
34767;SDS011;21755;43.608;1.236;2024-02-21T04:40:12;7.30;;;4.00;;
34767;SDS011;21755;43.608;1.236;2024-02-21T04:42:39;13.77;;;6.20;;
34767;SDS011;21755;43.608;1.236;2024-02-21T04:45:05;23.42;;;9.82;;
34767;SDS011;21755;43.608;1.236;2024-02-21T04:47:31;31.75;;;12.52;;
34767;SDS011;21755;43.608;1.236;2024-02-21T04:49:57;32.08;;;13.60;;
34767;SDS011;21755;43.608;1.236;2024-02-21T04:52:23;32.20;;;12.98;;
34767;SDS011;21755;43.608;1.236;2024-02-21T04:54:49;32.92;;;12.85;;
34767;SDS011;21755;43.608;1.236;2024-02-21T04:57:15;29.55;;;11.45;;
34767;SDS011;21755;43.608;1.236;2024-02-21T04:59:43;28.77;;;11.18;;
34767;SDS011;21755;43.608;1.236;2024-02-21T05:02:10;23.60;;;10.52;;
34767;SDS011;21755;43.608;1.236;2024-02-21T05:04:36;25.42;;;8.95;;
34767;SDS011;21755;43.608;1.236;2024-02-21T05:07:03;18.35;;;7.63;;
34767;SDS011;21755;43.608;1.236;2024-02-21T05:09:30;17.77;;;7.00;;
34767;SDS011;21755;43.608;1.236;2024-02-21T05:11:56;17.55;;;7.32;;
34767;SDS011;21755;43.608;1.236;2024-02-21T05:14:24;14.48;;;6.50;;
34767;SDS011;21755;43.608;1.236;2024-02-21T05:16:53;13.88;;;6.35;;
34767;SDS011;21755;43.608;1.236;2024-02-21T05:19:19;12.50;;;5.97;;
34767;SDS011;21755;43.608;1.236;2024-02-21T05:21:45;15.82;;;5.30;;
34767;SDS011;21755;43.608;1.236;2024-02-21T05:24:11;9.63;;;4.68;;
34767;SDS011;21755;43.608;1.236;2024-02-21T05:26:37;12.65;;;4.55;;
34767;SDS011;21755;43.608;1.236;2024-02-21T05:29:03;9.10;;;4.45;;
34767;SDS011;21755;43.608;1.236;2024-02-21T05:31:42;6.72;;;3.42;;
34767;SDS011;21755;43.608;1.236;2024-02-21T05:34:21;8.02;;;4.15;;
34767;SDS011;21755;43.608;1.236;2024-02-21T05:36:47;9.32;;;3.55;;
34767;SDS011;21755;43.608;1.236;2024-02-21T05:39:15;7.45;;;3.78;;
34767;SDS011;21755;43.608;1.236;2024-02-21T05:41:44;6.72;;;3.83;;
34767;SDS011;21755;43.608;1.236;2024-02-21T05:44:10;10.32;;;3.70;;
34767;SDS011;21755;43.608;1.236;2024-02-21T05:46:37;8.55;;;4.60;;
34767;SDS011;21755;43.608;1.236;2024-02-21T05:49:02;8.15;;;4.40;;
34767;SDS011;21755;43.608;1.236;2024-02-21T05:51:32;9.95;;;4.47;;
34767;SDS011;21755;43.608;1.236;2024-02-21T05:53:58;10.43;;;5.10;;
34767;SDS011;21755;43.608;1.236;2024-02-21T05:56:24;7.15;;;3.80;;
34767;SDS011;21755;43.608;1.236;2024-02-21T05:58:50;8.98;;;3.80;;
34767;SDS011;21755;43.608;1.236;2024-02-21T06:01:16;9.13;;;3.75;;
34767;SDS011;21755;43.608;1.236;2024-02-21T06:03:42;10.48;;;3.88;;
34767;SDS011;21755;43.608;1.236;2024-02-21T06:06:08;10.75;;;4.15;;
34767;SDS011;21755;43.608;1.236;2024-02-21T06:08:34;6.35;;;3.70;;
34767;SDS011;21755;43.608;1.236;2024-02-21T06:11:00;7.85;;;3.10;;
34767;SDS011;21755;43.608;1.236;2024-02-21T06:13:26;7.25;;;4.07;;
34767;SDS011;21755;43.608;1.236;2024-02-21T06:15:52;11.30;;;4.00;;
34767;SDS011;21755;43.608;1.236;2024-02-21T06:18:18;10.07;;;5.13;;
34767;SDS011;21755;43.608;1.236;2024-02-21T06:20:45;9.52;;;4.43;;
34767;SDS011;21755;43.608;1.236;2024-02-21T06:23:15;11.88;;;4.82;;
34767;SDS011;21755;43.608;1.236;2024-02-21T06:25:42;18.23;;;7.93;;
34767;SDS011;21755;43.608;1.236;2024-02-21T06:28:08;13.23;;;6.13;;
34767;SDS011;21755;43.608;1.236;2024-02-21T06:30:35;18.65;;;6.30;;
34767;SDS011;21755;43.608;1.236;2024-02-21T06:33:01;12.55;;;5.80;;
34767;SDS011;21755;43.608;1.236;2024-02-21T06:35:27;14.45;;;6.05;;
34767;SDS011;21755;43.608;1.236;2024-02-21T06:37:54;20.23;;;7.05;;
34767;SDS011;21755;43.608;1.236;2024-02-21T06:40:21;12.10;;;6.70;;
34767;SDS011;21755;43.608;1.236;2024-02-21T06:42:47;12.85;;;6.25;;
34767;SDS011;21755;43.608;1.236;2024-02-21T06:45:14;13.32;;;6.25;;
34767;SDS011;21755;43.608;1.236;2024-02-21T06:47:40;21.65;;;9.13;;
34767;SDS011;21755;43.608;1.236;2024-02-21T06:50:06;19.10;;;9.40;;
34767;SDS011;21755;43.608;1.236;2024-02-21T06:52:33;19.88;;;10.57;;
34767;SDS011;21755;43.608;1.236;2024-02-21T06:55:00;16.85;;;10.07;;
34767;SDS011;21755;43.608;1.236;2024-02-21T06:57:25;10.98;;;5.88;;
34767;SDS011;21755;43.608;1.236;2024-02-21T06:59:51;10.43;;;5.93;;
34767;SDS011;21755;43.608;1.236;2024-02-21T07:02:17;14.75;;;6.05;;
34767;SDS011;21755;43.608;1.236;2024-02-21T07:04:43;15.63;;;6.80;;
34767;SDS011;21755;43.608;1.236;2024-02-21T07:07:09;16.02;;;6.50;;
34767;SDS011;21755;43.608;1.236;2024-02-21T07:09:35;12.48;;;6.57;;
34767;SDS011;21755;43.608;1.236;2024-02-21T07:12:01;16.65;;;7.28;;
34767;SDS011;21755;43.608;1.236;2024-02-21T07:14:30;18.00;;;8.00;;
34767;SDS011;21755;43.608;1.236;2024-02-21T07:16:57;18.10;;;7.63;;
34767;SDS011;21755;43.608;1.236;2024-02-21T07:19:23;16.85;;;7.95;;
34767;SDS011;21755;43.608;1.236;2024-02-21T07:21:49;13.52;;;7.88;;
34767;SDS011;21755;43.608;1.236;2024-02-21T07:24:15;16.83;;;9.48;;
34767;SDS011;21755;43.608;1.236;2024-02-21T07:26:41;20.25;;;9.57;;
34767;SDS011;21755;43.608;1.236;2024-02-21T07:29:08;26.30;;;12.50;;
34767;SDS011;21755;43.608;1.236;2024-02-21T07:31:43;24.25;;;11.90;;
34767;SDS011;21755;43.608;1.236;2024-02-21T07:34:09;23.35;;;12.00;;
34767;SDS011;21755;43.608;1.236;2024-02-21T07:36:35;29.10;;;13.43;;
34767;SDS011;21755;43.608;1.236;2024-02-21T07:39:03;23.30;;;12.38;;
34767;SDS011;21755;43.608;1.236;2024-02-21T07:41:32;19.92;;;10.15;;
34767;SDS011;21755;43.608;1.236;2024-02-21T07:43:59;25.30;;;10.70;;
34767;SDS011;21755;43.608;1.236;2024-02-21T07:46:25;20.65;;;9.65;;
34767;SDS011;21755;43.608;1.236;2024-02-21T07:48:51;16.70;;;9.20;;
34767;SDS011;21755;43.608;1.236;2024-02-21T07:51:17;15.77;;;8.88;;
34767;SDS011;21755;43.608;1.236;2024-02-21T07:53:44;18.00;;;9.52;;
34767;SDS011;21755;43.608;1.236;2024-02-21T07:56:14;19.02;;;10.45;;
34767;SDS011;21755;43.608;1.236;2024-02-21T07:58:41;17.88;;;9.40;;
34767;SDS011;21755;43.608;1.236;2024-02-21T08:01:07;19.92;;;9.55;;
34767;SDS011;21755;43.608;1.236;2024-02-21T08:03:34;19.27;;;9.88;;
34767;SDS011;21755;43.608;1.236;2024-02-21T08:06:00;21.67;;;9.35;;
34767;SDS011;21755;43.608;1.236;2024-02-21T08:08:26;17.88;;;8.65;;
34767;SDS011;21755;43.608;1.236;2024-02-21T08:10:52;15.70;;;8.82;;
34767;SDS011;21755;43.608;1.236;2024-02-21T08:13:18;14.63;;;9.25;;
34767;SDS011;21755;43.608;1.236;2024-02-21T08:15:44;20.08;;;9.93;;
34767;SDS011;21755;43.608;1.236;2024-02-21T08:18:10;17.02;;;9.27;;
34767;SDS011;21755;43.608;1.236;2024-02-21T08:20:36;17.55;;;8.63;;
34767;SDS011;21755;43.608;1.236;2024-02-21T08:23:01;14.45;;;7.93;;
34767;SDS011;21755;43.608;1.236;2024-02-21T08:25:27;16.27;;;8.00;;
34767;SDS011;21755;43.608;1.236;2024-02-21T08:27:59;20.75;;;8.70;;
34767;SDS011;21755;43.608;1.236;2024-02-21T08:30:25;14.27;;;8.05;;
34767;SDS011;21755;43.608;1.236;2024-02-21T08:32:51;13.57;;;6.68;;
34767;SDS011;21755;43.608;1.236;2024-02-21T08:35:19;13.88;;;8.05;;
34767;SDS011;21755;43.608;1.236;2024-02-21T08:37:47;20.55;;;7.90;;
34767;SDS011;21755;43.608;1.236;2024-02-21T08:40:13;15.48;;;7.22;;
34767;SDS011;21755;43.608;1.236;2024-02-21T08:42:42;13.82;;;7.50;;
34767;SDS011;21755;43.608;1.236;2024-02-21T08:45:09;17.95;;;7.13;;
34767;SDS011;21755;43.608;1.236;2024-02-21T08:47:35;15.85;;;8.25;;
34767;SDS011;21755;43.608;1.236;2024-02-21T08:50:02;12.75;;;7.07;;
34767;SDS011;21755;43.608;1.236;2024-02-21T08:52:28;14.40;;;7.18;;
34767;SDS011;21755;43.608;1.236;2024-02-21T08:54:54;12.20;;;5.75;;
34767;SDS011;21755;43.608;1.236;2024-02-21T08:57:20;14.98;;;6.20;;
34767;SDS011;21755;43.608;1.236;2024-02-21T08:59:46;14.02;;;6.60;;
34767;SDS011;21755;43.608;1.236;2024-02-21T09:02:12;12.90;;;6.55;;
34767;SDS011;21755;43.608;1.236;2024-02-21T09:04:39;19.55;;;6.63;;
34767;SDS011;21755;43.608;1.236;2024-02-21T09:07:04;19.83;;;6.95;;
34767;SDS011;21755;43.608;1.236;2024-02-21T09:09:30;11.50;;;5.40;;
34767;SDS011;21755;43.608;1.236;2024-02-21T09:11:58;8.95;;;4.93;;
34767;SDS011;21755;43.608;1.236;2024-02-21T09:14:31;11.05;;;4.85;;
34767;SDS011;21755;43.608;1.236;2024-02-21T09:16:57;17.90;;;5.30;;
34767;SDS011;21755;43.608;1.236;2024-02-21T09:19:23;8.90;;;4.93;;
34767;SDS011;21755;43.608;1.236;2024-02-21T09:21:49;13.25;;;4.88;;
34767;SDS011;21755;43.608;1.236;2024-02-21T09:24:15;13.75;;;4.78;;
34767;SDS011;21755;43.608;1.236;2024-02-21T09:26:41;7.95;;;4.43;;
34767;SDS011;21755;43.608;1.236;2024-02-21T09:29:07;9.65;;;4.50;;
34767;SDS011;21755;43.608;1.236;2024-02-21T09:31:33;13.55;;;4.32;;
34767;SDS011;21755;43.608;1.236;2024-02-21T09:33:59;13.10;;;4.80;;
34767;SDS011;21755;43.608;1.236;2024-02-21T09:36:24;12.75;;;4.93;;
34767;SDS011;21755;43.608;1.236;2024-02-21T09:38:50;13.20;;;5.22;;
34767;SDS011;21755;43.608;1.236;2024-02-21T09:41:18;11.00;;;4.93;;
34767;SDS011;21755;43.608;1.236;2024-02-21T09:43:50;13.15;;;4.68;;
34767;SDS011;21755;43.608;1.236;2024-02-21T09:46:18;8.95;;;4.40;;
34767;SDS011;21755;43.608;1.236;2024-02-21T09:51:30;13.32;;;4.50;;
34767;SDS011;21755;43.608;1.236;2024-02-21T09:53:59;5.45;;;3.28;;
34767;SDS011;21755;43.608;1.236;2024-02-21T09:56:28;9.38;;;3.47;;
34767;SDS011;21755;43.608;1.236;2024-02-21T09:58:54;8.23;;;3.65;;
34767;SDS011;21755;43.608;1.236;2024-02-21T10:01:20;8.68;;;3.40;;
34767;SDS011;21755;43.608;1.236;2024-02-21T10:03:46;7.70;;;3.60;;
34767;SDS011;21755;43.608;1.236;2024-02-21T10:06:12;8.15;;;3.33;;
34767;SDS011;21755;43.608;1.236;2024-02-21T10:08:37;7.07;;;3.28;;
34767;SDS011;21755;43.608;1.236;2024-02-21T10:11:03;5.38;;;3.08;;
34767;SDS011;21755;43.608;1.236;2024-02-21T10:13:29;8.85;;;3.38;;
34767;SDS011;21755;43.608;1.236;2024-02-21T10:16:02;13.07;;;3.63;;
34767;SDS011;21755;43.608;1.236;2024-02-21T10:18:32;10.50;;;3.13;;
34767;SDS011;21755;43.608;1.236;2024-02-21T10:21:05;6.38;;;2.75;;
34767;SDS011;21755;43.608;1.236;2024-02-21T10:23:45;8.32;;;2.72;;
34767;SDS011;21755;43.608;1.236;2024-02-21T10:26:12;10.68;;;3.10;;
34767;SDS011;21755;43.608;1.236;2024-02-21T10:28:39;9.00;;;3.20;;
34767;SDS011;21755;43.608;1.236;2024-02-21T10:31:07;8.40;;;2.63;;
34767;SDS011;21755;43.608;1.236;2024-02-21T10:33:34;5.13;;;2.65;;
34767;SDS011;21755;43.608;1.236;2024-02-21T10:36:10;8.90;;;2.60;;
34767;SDS011;21755;43.608;1.236;2024-02-21T10:38:37;10.90;;;3.05;;
34767;SDS011;21755;43.608;1.236;2024-02-21T10:41:07;9.85;;;2.63;;
34767;SDS011;21755;43.608;1.236;2024-02-21T10:43:39;9.27;;;2.35;;
34767;SDS011;21755;43.608;1.236;2024-02-21T10:46:09;12.57;;;3.25;;
34767;SDS011;21755;43.608;1.236;2024-02-21T10:48:42;12.15;;;2.70;;
34767;SDS011;21755;43.608;1.236;2024-02-21T10:51:19;7.82;;;2.67;;
34767;SDS011;21755;43.608;1.236;2024-02-21T10:53:50;7.65;;;2.40;;
34767;SDS011;21755;43.608;1.236;2024-02-21T10:56:39;7.88;;;2.53;;
34767;SDS011;21755;43.608;1.236;2024-02-21T10:59:07;9.73;;;2.40;;
34767;SDS011;21755;43.608;1.236;2024-02-21T11:01:33;6.82;;;2.13;;
34767;SDS011;21755;43.608;1.236;2024-02-21T11:04:03;6.25;;;2.10;;
34767;SDS011;21755;43.608;1.236;2024-02-21T11:06:31;8.77;;;2.08;;
34767;SDS011;21755;43.608;1.236;2024-02-21T11:08:59;4.75;;;2.45;;
34767;SDS011;21755;43.608;1.236;2024-02-21T11:11:33;4.45;;;1.95;;
34767;SDS011;21755;43.608;1.236;2024-02-21T11:14:20;4.93;;;1.90;;
34767;SDS011;21755;43.608;1.236;2024-02-21T11:16:46;8.68;;;2.35;;
34767;SDS011;21755;43.608;1.236;2024-02-21T11:19:22;5.78;;;2.47;;
34767;SDS011;21755;43.608;1.236;2024-02-21T11:21:49;7.07;;;2.20;;
34767;SDS011;21755;43.608;1.236;2024-02-21T11:27:11;9.40;;;2.38;;
34767;SDS011;21755;43.608;1.236;2024-02-21T11:29:42;5.80;;;2.25;;
34767;SDS011;21755;43.608;1.236;2024-02-21T11:32:15;6.18;;;1.70;;
34767;SDS011;21755;43.608;1.236;2024-02-21T11:37:27;7.03;;;1.85;;
34767;SDS011;21755;43.608;1.236;2024-02-21T11:39:57;7.28;;;2.45;;
34767;SDS011;21755;43.608;1.236;2024-02-21T11:42:26;5.38;;;1.90;;
34767;SDS011;21755;43.608;1.236;2024-02-21T11:44:53;6.88;;;2.03;;
34767;SDS011;21755;43.608;1.236;2024-02-21T11:47:22;4.35;;;1.88;;
34767;SDS011;21755;43.608;1.236;2024-02-21T11:49:49;6.70;;;2.13;;
34767;SDS011;21755;43.608;1.236;2024-02-21T11:52:19;5.60;;;1.75;;
34767;SDS011;21755;43.608;1.236;2024-02-21T11:54:50;5.35;;;2.20;;
34767;SDS011;21755;43.608;1.236;2024-02-21T11:57:17;6.60;;;2.13;;
34767;SDS011;21755;43.608;1.236;2024-02-21T11:59:44;7.07;;;1.90;;
34767;SDS011;21755;43.608;1.236;2024-02-21T12:02:11;5.72;;;1.88;;
34767;SDS011;21755;43.608;1.236;2024-02-21T12:04:37;4.07;;;1.85;;
34767;SDS011;21755;43.608;1.236;2024-02-21T12:07:04;5.20;;;2.10;;
34767;SDS011;21755;43.608;1.236;2024-02-21T12:09:30;4.03;;;1.98;;
34767;SDS011;21755;43.608;1.236;2024-02-21T12:11:57;4.45;;;2.00;;
34767;SDS011;21755;43.608;1.236;2024-02-21T12:14:30;5.40;;;2.08;;
34767;SDS011;21755;43.608;1.236;2024-02-21T12:16:58;9.00;;;2.13;;
34767;SDS011;21755;43.608;1.236;2024-02-21T12:19:25;3.50;;;1.77;;
34767;SDS011;21755;43.608;1.236;2024-02-21T12:21:51;5.57;;;2.10;;
34767;SDS011;21755;43.608;1.236;2024-02-21T12:24:23;7.30;;;2.60;;
34767;SDS011;21755;43.608;1.236;2024-02-21T12:26:51;3.55;;;1.55;;
34767;SDS011;21755;43.608;1.236;2024-02-21T12:29:18;7.45;;;1.92;;
34767;SDS011;21755;43.608;1.236;2024-02-21T12:31:48;9.75;;;2.25;;
34767;SDS011;21755;43.608;1.236;2024-02-21T12:34:14;3.45;;;1.73;;
34767;SDS011;21755;43.608;1.236;2024-02-21T12:36:41;4.00;;;2.08;;
34767;SDS011;21755;43.608;1.236;2024-02-21T12:39:08;4.90;;;2.05;;
34767;SDS011;21755;43.608;1.236;2024-02-21T12:41:35;4.07;;;1.83;;
34767;SDS011;21755;43.608;1.236;2024-02-21T12:44:06;5.50;;;1.80;;
34767;SDS011;21755;43.608;1.236;2024-02-21T12:46:33;2.85;;;1.52;;
34767;SDS011;21755;43.608;1.236;2024-02-21T12:48:59;4.18;;;1.88;;
34767;SDS011;21755;43.608;1.236;2024-02-21T12:51:26;7.15;;;2.15;;
34767;SDS011;21755;43.608;1.236;2024-02-21T12:53:52;3.42;;;1.45;;
34767;SDS011;21755;43.608;1.236;2024-02-21T12:56:17;6.47;;;2.33;;
34767;SDS011;21755;43.608;1.236;2024-02-21T12:58:43;4.72;;;1.55;;
34767;SDS011;21755;43.608;1.236;2024-02-21T13:01:10;3.92;;;1.85;;
34767;SDS011;21755;43.608;1.236;2024-02-21T13:03:36;7.03;;;2.05;;
34767;SDS011;21755;43.608;1.236;2024-02-21T13:06:03;8.35;;;2.10;;
34767;SDS011;21755;43.608;1.236;2024-02-21T13:08:29;4.45;;;1.65;;
34767;SDS011;21755;43.608;1.236;2024-02-21T13:10:55;4.70;;;1.83;;
34767;SDS011;21755;43.608;1.236;2024-02-21T13:13:21;7.40;;;1.77;;
34767;SDS011;21755;43.608;1.236;2024-02-21T13:15:47;2.75;;;1.52;;
34767;SDS011;21755;43.608;1.236;2024-02-21T13:18:13;4.07;;;1.60;;
34767;SDS011;21755;43.608;1.236;2024-02-21T13:20:39;2.88;;;1.15;;
34767;SDS011;21755;43.608;1.236;2024-02-21T13:23:05;3.00;;;1.27;;
34767;SDS011;21755;43.608;1.236;2024-02-21T13:25:31;3.63;;;1.42;;
34767;SDS011;21755;43.608;1.236;2024-02-21T13:27:56;4.95;;;1.23;;
34767;SDS011;21755;43.608;1.236;2024-02-21T13:30:22;4.65;;;1.65;;
34767;SDS011;21755;43.608;1.236;2024-02-21T13:32:50;3.95;;;1.60;;
34767;SDS011;21755;43.608;1.236;2024-02-21T13:35:16;4.22;;;1.52;;
34767;SDS011;21755;43.608;1.236;2024-02-21T13:37:42;3.03;;;1.20;;
34767;SDS011;21755;43.608;1.236;2024-02-21T13:40:08;3.22;;;1.15;;
34767;SDS011;21755;43.608;1.236;2024-02-21T13:42:35;4.47;;;1.10;;
34767;SDS011;21755;43.608;1.236;2024-02-21T13:45:02;4.40;;;1.30;;
34767;SDS011;21755;43.608;1.236;2024-02-21T13:47:30;2.53;;;1.30;;
34767;SDS011;21755;43.608;1.236;2024-02-21T13:49:57;5.30;;;1.27;;
34767;SDS011;21755;43.608;1.236;2024-02-21T13:52:23;4.85;;;1.70;;
34767;SDS011;21755;43.608;1.236;2024-02-21T13:54:51;4.50;;;2.03;;
34767;SDS011;21755;43.608;1.236;2024-02-21T13:57:17;2.92;;;1.38;;
34767;SDS011;21755;43.608;1.236;2024-02-21T13:59:43;4.65;;;1.75;;
34767;SDS011;21755;43.608;1.236;2024-02-21T14:02:09;3.53;;;1.33;;
34767;SDS011;21755;43.608;1.236;2024-02-21T14:04:35;4.28;;;1.73;;
34767;SDS011;21755;43.608;1.236;2024-02-21T14:07:01;5.13;;;1.58;;
34767;SDS011;21755;43.608;1.236;2024-02-21T14:09:27;5.68;;;2.20;;
34767;SDS011;21755;43.608;1.236;2024-02-21T14:11:57;7.15;;;2.25;;
34767;SDS011;21755;43.608;1.236;2024-02-21T14:14:23;3.67;;;1.70;;
34767;SDS011;21755;43.608;1.236;2024-02-21T14:16:49;5.78;;;1.85;;
34767;SDS011;21755;43.608;1.236;2024-02-21T14:19:15;6.22;;;1.85;;
34767;SDS011;21755;43.608;1.236;2024-02-21T14:21:41;5.90;;;2.22;;
34767;SDS011;21755;43.608;1.236;2024-02-21T14:24:06;8.75;;;2.53;;
34767;SDS011;21755;43.608;1.236;2024-02-21T14:26:33;3.63;;;1.38;;
34767;SDS011;21755;43.608;1.236;2024-02-21T14:29:00;7.63;;;2.45;;
34767;SDS011;21755;43.608;1.236;2024-02-21T14:31:28;5.88;;;1.77;;
34767;SDS011;21755;43.608;1.236;2024-02-21T14:33:58;7.07;;;2.00;;
34767;SDS011;21755;43.608;1.236;2024-02-21T14:36:25;5.00;;;2.00;;
34767;SDS011;21755;43.608;1.236;2024-02-21T14:38:51;10.35;;;2.40;;
34767;SDS011;21755;43.608;1.236;2024-02-21T14:41:18;6.43;;;2.03;;
34767;SDS011;21755;43.608;1.236;2024-02-21T14:43:44;6.70;;;2.42;;
34767;SDS011;21755;43.608;1.236;2024-02-21T14:46:11;3.38;;;1.95;;
34767;SDS011;21755;43.608;1.236;2024-02-21T14:48:37;8.73;;;2.30;;
34767;SDS011;21755;43.608;1.236;2024-02-21T14:51:04;5.50;;;1.60;;